sensor_id;sensor_type;location;lat;lon;timestamp;P1;durP1;ratioP1;P2;durP2;ratioP2
56860;SDS011;42744;51.094;3.490;2022-09-09T00:01:47;3.97;;;1.87;;
56860;SDS011;42744;51.094;3.490;2022-09-09T00:21:08;4.83;;;1.67;;
56860;SDS011;42744;51.094;3.490;2022-09-09T00:24:04;11.07;;;1.87;;
56860;SDS011;42744;51.094;3.490;2022-09-09T00:29:14;3.83;;;1.70;;
56860;SDS011;42744;51.094;3.490;2022-09-09T00:31:49;4.13;;;1.50;;
56860;SDS011;42744;51.094;3.490;2022-09-09T00:34:21;5.23;;;1.80;;
56860;SDS011;42744;51.094;3.490;2022-09-09T00:36:50;7.63;;;1.57;;
56860;SDS011;42744;51.094;3.490;2022-09-09T00:39:31;6.07;;;1.63;;
56860;SDS011;42744;51.094;3.490;2022-09-09T00:42:17;5.33;;;1.60;;
56860;SDS011;42744;51.094;3.490;2022-09-09T00:56:25;4.00;;;1.53;;
56860;SDS011;42744;51.094;3.490;2022-09-09T01:02:25;3.50;;;1.60;;
56860;SDS011;42744;51.094;3.490;2022-09-09T01:05:12;2.90;;;1.30;;
56860;SDS011;42744;51.094;3.490;2022-09-09T01:07:46;5.20;;;1.57;;
56860;SDS011;42744;51.094;3.490;2022-09-09T01:10:37;2.67;;;1.10;;
56860;SDS011;42744;51.094;3.490;2022-09-09T01:13:14;3.73;;;1.30;;
56860;SDS011;42744;51.094;3.490;2022-09-09T01:15:48;3.43;;;0.90;;
56860;SDS011;42744;51.094;3.490;2022-09-09T01:18:16;4.40;;;1.40;;
56860;SDS011;42744;51.094;3.490;2022-09-09T01:20:49;3.83;;;1.30;;
56860;SDS011;42744;51.094;3.490;2022-09-09T01:29:01;3.93;;;1.30;;
56860;SDS011;42744;51.094;3.490;2022-09-09T01:31:31;3.87;;;1.10;;
56860;SDS011;42744;51.094;3.490;2022-09-09T01:34:02;4.80;;;1.50;;
56860;SDS011;42744;51.094;3.490;2022-09-09T01:36:44;3.30;;;1.20;;
56860;SDS011;42744;51.094;3.490;2022-09-09T01:39:15;6.87;;;1.50;;
56860;SDS011;42744;51.094;3.490;2022-09-09T01:41:42;5.23;;;1.20;;
56860;SDS011;42744;51.094;3.490;2022-09-09T01:44:08;4.73;;;1.30;;
56860;SDS011;42744;51.094;3.490;2022-09-09T01:46:36;6.30;;;1.90;;
56860;SDS011;42744;51.094;3.490;2022-09-09T01:49:03;2.03;;;0.90;;
56860;SDS011;42744;51.094;3.490;2022-09-09T01:51:32;4.50;;;1.30;;
56860;SDS011;42744;51.094;3.490;2022-09-09T01:54:00;5.87;;;1.40;;
56860;SDS011;42744;51.094;3.490;2022-09-09T01:59:26;4.03;;;1.27;;
56860;SDS011;42744;51.094;3.490;2022-09-09T02:04:41;4.87;;;1.40;;
56860;SDS011;42744;51.094;3.490;2022-09-09T02:07:19;4.40;;;1.20;;
56860;SDS011;42744;51.094;3.490;2022-09-09T02:10:20;5.23;;;1.30;;
56860;SDS011;42744;51.094;3.490;2022-09-09T02:21:15;3.57;;;1.37;;
56860;SDS011;42744;51.094;3.490;2022-09-09T02:23:42;5.13;;;1.30;;
56860;SDS011;42744;51.094;3.490;2022-09-09T02:26:12;4.87;;;1.20;;
56860;SDS011;42744;51.094;3.490;2022-09-09T02:28:46;4.07;;;1.37;;
56860;SDS011;42744;51.094;3.490;2022-09-09T02:31:14;6.93;;;1.40;;
56860;SDS011;42744;51.094;3.490;2022-09-09T02:33:44;4.37;;;1.43;;
56860;SDS011;42744;51.094;3.490;2022-09-09T02:36:15;4.97;;;1.50;;
56860;SDS011;42744;51.094;3.490;2022-09-09T02:38:45;7.47;;;1.40;;
56860;SDS011;42744;51.094;3.490;2022-09-09T02:41:19;6.00;;;1.60;;
56860;SDS011;42744;51.094;3.490;2022-09-09T02:43:51;6.00;;;1.57;;
56860;SDS011;42744;51.094;3.490;2022-09-09T02:48:50;4.10;;;1.30;;
56860;SDS011;42744;51.094;3.490;2022-09-09T02:51:59;6.43;;;1.63;;
56860;SDS011;42744;51.094;3.490;2022-09-09T02:54:29;6.17;;;1.77;;
56860;SDS011;42744;51.094;3.490;2022-09-09T02:57:08;7.97;;;1.77;;
56860;SDS011;42744;51.094;3.490;2022-09-09T02:59:36;6.90;;;1.37;;
56860;SDS011;42744;51.094;3.490;2022-09-09T03:02:03;7.23;;;1.97;;
56860;SDS011;42744;51.094;3.490;2022-09-09T03:04:30;7.83;;;1.90;;
56860;SDS011;42744;51.094;3.490;2022-09-09T03:06:57;7.20;;;1.40;;
56860;SDS011;42744;51.094;3.490;2022-09-09T03:09:23;6.73;;;1.73;;
56860;SDS011;42744;51.094;3.490;2022-09-09T03:11:52;8.37;;;1.73;;
56860;SDS011;42744;51.094;3.490;2022-09-09T03:14:18;4.97;;;1.50;;
56860;SDS011;42744;51.094;3.490;2022-09-09T03:16:47;4.77;;;1.43;;
56860;SDS011;42744;51.094;3.490;2022-09-09T03:19:13;5.47;;;1.40;;
56860;SDS011;42744;51.094;3.490;2022-09-09T03:21:41;10.33;;;2.00;;
56860;SDS011;42744;51.094;3.490;2022-09-09T03:24:07;8.03;;;1.67;;
56860;SDS011;42744;51.094;3.490;2022-09-09T03:26:35;8.07;;;1.57;;
56860;SDS011;42744;51.094;3.490;2022-09-09T03:29:03;4.73;;;1.43;;
56860;SDS011;42744;51.094;3.490;2022-09-09T03:31:32;5.83;;;1.90;;
56860;SDS011;42744;51.094;3.490;2022-09-09T03:33:59;8.67;;;2.20;;
56860;SDS011;42744;51.094;3.490;2022-09-09T03:36:26;5.47;;;1.53;;
56860;SDS011;42744;51.094;3.490;2022-09-09T03:38:52;7.57;;;1.70;;
56860;SDS011;42744;51.094;3.490;2022-09-09T03:41:23;3.03;;;1.30;;
56860;SDS011;42744;51.094;3.490;2022-09-09T03:43:50;8.53;;;1.87;;
56860;SDS011;42744;51.094;3.490;2022-09-09T03:46:18;8.80;;;1.83;;
56860;SDS011;42744;51.094;3.490;2022-09-09T03:48:44;6.07;;;1.60;;
56860;SDS011;42744;51.094;3.490;2022-09-09T03:51:10;7.13;;;1.50;;
56860;SDS011;42744;51.094;3.490;2022-09-09T03:53:36;9.97;;;1.93;;
56860;SDS011;42744;51.094;3.490;2022-09-09T03:56:04;9.63;;;1.80;;
56860;SDS011;42744;51.094;3.490;2022-09-09T03:58:32;6.23;;;1.80;;
56860;SDS011;42744;51.094;3.490;2022-09-09T04:01:01;6.10;;;1.70;;
56860;SDS011;42744;51.094;3.490;2022-09-09T04:03:30;8.73;;;1.63;;
56860;SDS011;42744;51.094;3.490;2022-09-09T04:05:58;9.67;;;2.23;;
56860;SDS011;42744;51.094;3.490;2022-09-09T04:08:28;8.90;;;2.27;;
56860;SDS011;42744;51.094;3.490;2022-09-09T04:10:57;8.73;;;1.70;;
56860;SDS011;42744;51.094;3.490;2022-09-09T04:13:24;8.90;;;1.73;;
56860;SDS011;42744;51.094;3.490;2022-09-09T04:15:52;5.37;;;1.83;;
56860;SDS011;42744;51.094;3.490;2022-09-09T04:18:20;9.83;;;2.40;;
56860;SDS011;42744;51.094;3.490;2022-09-09T04:20:50;9.27;;;2.60;;
56860;SDS011;42744;51.094;3.490;2022-09-09T04:23:18;8.97;;;1.80;;
56860;SDS011;42744;51.094;3.490;2022-09-09T04:25:49;9.83;;;1.97;;
56860;SDS011;42744;51.094;3.490;2022-09-09T04:28:21;9.40;;;2.00;;
56860;SDS011;42744;51.094;3.490;2022-09-09T04:30:49;9.20;;;1.73;;
56860;SDS011;42744;51.094;3.490;2022-09-09T04:33:15;10.40;;;2.07;;
56860;SDS011;42744;51.094;3.490;2022-09-09T04:35:45;9.47;;;1.97;;
56860;SDS011;42744;51.094;3.490;2022-09-09T04:38:14;11.53;;;2.37;;
56860;SDS011;42744;51.094;3.490;2022-09-09T04:40:46;12.20;;;2.40;;
56860;SDS011;42744;51.094;3.490;2022-09-09T04:43:12;9.50;;;2.00;;
56860;SDS011;42744;51.094;3.490;2022-09-09T04:45:40;7.47;;;2.10;;
56860;SDS011;42744;51.094;3.490;2022-09-09T04:48:06;10.57;;;3.13;;
56860;SDS011;42744;51.094;3.490;2022-09-09T04:50:35;6.60;;;2.33;;
56860;SDS011;42744;51.094;3.490;2022-09-09T04:53:01;9.17;;;2.27;;
56860;SDS011;42744;51.094;3.490;2022-09-09T04:55:29;8.07;;;1.90;;
56860;SDS011;42744;51.094;3.490;2022-09-09T04:57:56;8.03;;;2.43;;
56860;SDS011;42744;51.094;3.490;2022-09-09T05:00:23;9.00;;;2.43;;
56860;SDS011;42744;51.094;3.490;2022-09-09T05:02:50;8.60;;;2.07;;
56860;SDS011;42744;51.094;3.490;2022-09-09T05:05:17;10.97;;;2.30;;
56860;SDS011;42744;51.094;3.490;2022-09-09T05:07:45;8.80;;;2.13;;
56860;SDS011;42744;51.094;3.490;2022-09-09T05:10:12;8.70;;;2.30;;
56860;SDS011;42744;51.094;3.490;2022-09-09T05:12:42;10.77;;;2.57;;
56860;SDS011;42744;51.094;3.490;2022-09-09T05:15:08;8.50;;;2.30;;
56860;SDS011;42744;51.094;3.490;2022-09-09T05:17:34;17.20;;;2.17;;
56860;SDS011;42744;51.094;3.490;2022-09-09T05:20:01;10.80;;;2.67;;
56860;SDS011;42744;51.094;3.490;2022-09-09T05:22:29;10.03;;;2.10;;
56860;SDS011;42744;51.094;3.490;2022-09-09T05:24:55;8.77;;;2.47;;
56860;SDS011;42744;51.094;3.490;2022-09-09T05:27:22;9.20;;;2.47;;
56860;SDS011;42744;51.094;3.490;2022-09-09T05:29:48;9.03;;;2.73;;
56860;SDS011;42744;51.094;3.490;2022-09-09T05:32:14;13.93;;;3.20;;
56860;SDS011;42744;51.094;3.490;2022-09-09T05:34:43;7.57;;;2.00;;
56860;SDS011;42744;51.094;3.490;2022-09-09T05:37:09;8.00;;;2.90;;
56860;SDS011;42744;51.094;3.490;2022-09-09T05:39:35;8.17;;;3.13;;
56860;SDS011;42744;51.094;3.490;2022-09-09T05:42:02;13.70;;;3.10;;
56860;SDS011;42744;51.094;3.490;2022-09-09T05:44:30;8.50;;;2.77;;
56860;SDS011;42744;51.094;3.490;2022-09-09T05:46:57;10.90;;;2.60;;
56860;SDS011;42744;51.094;3.490;2022-09-09T05:49:23;11.27;;;2.60;;
56860;SDS011;42744;51.094;3.490;2022-09-09T05:51:50;10.87;;;2.40;;
56860;SDS011;42744;51.094;3.490;2022-09-09T05:54:16;9.23;;;2.17;;
56860;SDS011;42744;51.094;3.490;2022-09-09T05:56:44;13.03;;;2.67;;
56860;SDS011;42744;51.094;3.490;2022-09-09T05:59:10;8.43;;;2.63;;
56860;SDS011;42744;51.094;3.490;2022-09-09T06:01:38;12.10;;;2.93;;
56860;SDS011;42744;51.094;3.490;2022-09-09T06:04:08;13.30;;;2.80;;
56860;SDS011;42744;51.094;3.490;2022-09-09T06:06:35;14.77;;;3.23;;
56860;SDS011;42744;51.094;3.490;2022-09-09T06:09:06;7.07;;;2.33;;
56860;SDS011;42744;51.094;3.490;2022-09-09T06:11:39;11.33;;;2.93;;
56860;SDS011;42744;51.094;3.490;2022-09-09T06:14:05;10.67;;;2.63;;
56860;SDS011;42744;51.094;3.490;2022-09-09T06:16:32;8.57;;;2.83;;
56860;SDS011;42744;51.094;3.490;2022-09-09T06:19:00;10.63;;;2.67;;
56860;SDS011;42744;51.094;3.490;2022-09-09T06:21:35;9.33;;;2.70;;
56860;SDS011;42744;51.094;3.490;2022-09-09T06:24:03;10.10;;;2.17;;
56860;SDS011;42744;51.094;3.490;2022-09-09T06:26:31;12.00;;;2.37;;
56860;SDS011;42744;51.094;3.490;2022-09-09T06:29:02;11.73;;;3.30;;
56860;SDS011;42744;51.094;3.490;2022-09-09T06:31:30;9.23;;;2.60;;
56860;SDS011;42744;51.094;3.490;2022-09-09T06:34:00;9.40;;;2.10;;
56860;SDS011;42744;51.094;3.490;2022-09-09T06:36:30;9.10;;;2.80;;
56860;SDS011;42744;51.094;3.490;2022-09-09T06:38:59;10.90;;;2.73;;
56860;SDS011;42744;51.094;3.490;2022-09-09T06:41:26;8.73;;;2.30;;
56860;SDS011;42744;51.094;3.490;2022-09-09T06:43:56;13.70;;;3.20;;
56860;SDS011;42744;51.094;3.490;2022-09-09T06:46:27;12.10;;;2.77;;
56860;SDS011;42744;51.094;3.490;2022-09-09T06:48:56;9.43;;;3.50;;
56860;SDS011;42744;51.094;3.490;2022-09-09T06:51:26;9.60;;;2.63;;
56860;SDS011;42744;51.094;3.490;2022-09-09T06:53:54;9.20;;;2.50;;
56860;SDS011;42744;51.094;3.490;2022-09-09T06:56:26;10.17;;;2.17;;
56860;SDS011;42744;51.094;3.490;2022-09-09T06:58:55;11.00;;;2.90;;
56860;SDS011;42744;51.094;3.490;2022-09-09T07:01:27;8.50;;;2.40;;
56860;SDS011;42744;51.094;3.490;2022-09-09T07:03:56;9.20;;;2.40;;
56860;SDS011;42744;51.094;3.490;2022-09-09T07:06:25;10.73;;;2.73;;
56860;SDS011;42744;51.094;3.490;2022-09-09T07:08:56;7.77;;;2.97;;
56860;SDS011;42744;51.094;3.490;2022-09-09T07:11:26;6.83;;;2.33;;
56860;SDS011;42744;51.094;3.490;2022-09-09T07:13:54;9.90;;;2.40;;
56860;SDS011;42744;51.094;3.490;2022-09-09T07:16:22;12.33;;;2.60;;
56860;SDS011;42744;51.094;3.490;2022-09-09T07:18:50;9.87;;;2.77;;
56860;SDS011;42744;51.094;3.490;2022-09-09T07:21:18;11.50;;;2.57;;
56860;SDS011;42744;51.094;3.490;2022-09-09T07:23:46;12.63;;;2.50;;
56860;SDS011;42744;51.094;3.490;2022-09-09T07:26:16;9.17;;;2.60;;
56860;SDS011;42744;51.094;3.490;2022-09-09T07:28:45;8.13;;;2.33;;
56860;SDS011;42744;51.094;3.490;2022-09-09T07:31:15;6.53;;;2.10;;
56860;SDS011;42744;51.094;3.490;2022-09-09T07:33:46;7.90;;;2.60;;
56860;SDS011;42744;51.094;3.490;2022-09-09T07:36:18;8.67;;;2.07;;
56860;SDS011;42744;51.094;3.490;2022-09-09T07:38:52;5.90;;;2.43;;
56860;SDS011;42744;51.094;3.490;2022-09-09T07:41:27;9.07;;;2.10;;
56860;SDS011;42744;51.094;3.490;2022-09-09T07:43:57;5.40;;;2.10;;
56860;SDS011;42744;51.094;3.490;2022-09-09T07:46:25;7.73;;;2.10;;
56860;SDS011;42744;51.094;3.490;2022-09-09T07:48:53;10.13;;;2.37;;
56860;SDS011;42744;51.094;3.490;2022-09-09T07:51:23;12.40;;;2.03;;
56860;SDS011;42744;51.094;3.490;2022-09-09T07:54:00;7.40;;;1.97;;
56860;SDS011;42744;51.094;3.490;2022-09-09T07:56:29;7.60;;;2.23;;
56860;SDS011;42744;51.094;3.490;2022-09-09T07:58:56;9.63;;;2.27;;
56860;SDS011;42744;51.094;3.490;2022-09-09T08:04:01;6.93;;;2.50;;
56860;SDS011;42744;51.094;3.490;2022-09-09T08:06:37;8.40;;;2.00;;
56860;SDS011;42744;51.094;3.490;2022-09-09T08:09:06;10.73;;;2.67;;
56860;SDS011;42744;51.094;3.490;2022-09-09T08:11:33;5.80;;;2.17;;
56860;SDS011;42744;51.094;3.490;2022-09-09T08:14:01;8.83;;;2.30;;
56860;SDS011;42744;51.094;3.490;2022-09-09T08:16:29;9.10;;;3.03;;
56860;SDS011;42744;51.094;3.490;2022-09-09T08:18:59;8.93;;;2.37;;
56860;SDS011;42744;51.094;3.490;2022-09-09T08:21:29;6.47;;;2.23;;
56860;SDS011;42744;51.094;3.490;2022-09-09T08:23:58;6.97;;;2.20;;
56860;SDS011;42744;51.094;3.490;2022-09-09T08:26:29;10.13;;;2.40;;
56860;SDS011;42744;51.094;3.490;2022-09-09T08:28:58;7.67;;;2.50;;
56860;SDS011;42744;51.094;3.490;2022-09-09T08:31:27;5.67;;;2.10;;
56860;SDS011;42744;51.094;3.490;2022-09-09T08:33:59;8.50;;;2.57;;
56860;SDS011;42744;51.094;3.490;2022-09-09T08:36:29;11.33;;;2.23;;
56860;SDS011;42744;51.094;3.490;2022-09-09T08:38:59;10.20;;;2.50;;
56860;SDS011;42744;51.094;3.490;2022-09-09T08:50:17;6.27;;;2.50;;
56860;SDS011;42744;51.094;3.490;2022-09-09T08:58:19;5.50;;;2.20;;
56860;SDS011;42744;51.094;3.490;2022-09-09T09:03:35;4.83;;;2.07;;
56860;SDS011;42744;51.094;3.490;2022-09-09T09:11:38;5.03;;;1.90;;
56860;SDS011;42744;51.094;3.490;2022-09-09T09:14:23;6.70;;;2.03;;
56860;SDS011;42744;51.094;3.490;2022-09-09T09:16:58;6.00;;;1.70;;
56860;SDS011;42744;51.094;3.490;2022-09-09T09:19:29;7.37;;;2.23;;
56860;SDS011;42744;51.094;3.490;2022-09-09T09:22:04;5.50;;;2.33;;
56860;SDS011;42744;51.094;3.490;2022-09-09T09:24:45;5.53;;;2.00;;
56860;SDS011;42744;51.094;3.490;2022-09-09T09:27:30;4.13;;;1.70;;
56860;SDS011;42744;51.094;3.490;2022-09-09T09:30:05;5.33;;;1.70;;
56860;SDS011;42744;51.094;3.490;2022-09-09T09:32:43;4.60;;;1.83;;
56860;SDS011;42744;51.094;3.490;2022-09-09T09:35:21;7.07;;;1.63;;
56860;SDS011;42744;51.094;3.490;2022-09-09T09:37:47;5.03;;;1.90;;
56860;SDS011;42744;51.094;3.490;2022-09-09T09:40:14;6.40;;;1.63;;
56860;SDS011;42744;51.094;3.490;2022-09-09T09:42:57;5.13;;;1.47;;
56860;SDS011;42744;51.094;3.490;2022-09-09T09:48:11;3.57;;;1.60;;
56860;SDS011;42744;51.094;3.490;2022-09-09T09:50:50;4.97;;;1.50;;
56860;SDS011;42744;51.094;3.490;2022-09-09T09:53:25;5.87;;;1.40;;
56860;SDS011;42744;51.094;3.490;2022-09-09T09:55:57;5.17;;;1.40;;
56860;SDS011;42744;51.094;3.490;2022-09-09T09:58:27;4.80;;;1.60;;
56860;SDS011;42744;51.094;3.490;2022-09-09T10:00:57;3.20;;;1.43;;
56860;SDS011;42744;51.094;3.490;2022-09-09T10:06:04;2.37;;;1.20;;
56860;SDS011;42744;51.094;3.490;2022-09-09T10:08:33;7.53;;;1.77;;
56860;SDS011;42744;51.094;3.490;2022-09-09T10:13:54;4.47;;;1.63;;
56860;SDS011;42744;51.094;3.490;2022-09-09T10:19:32;3.63;;;1.17;;
56860;SDS011;42744;51.094;3.490;2022-09-09T10:37:41;4.10;;;1.20;;
56860;SDS011;42744;51.094;3.490;2022-09-09T10:57:01;2.87;;;1.20;;
56860;SDS011;42744;51.094;3.490;2022-09-09T10:59:47;4.97;;;1.43;;
56860;SDS011;42744;51.094;3.490;2022-09-09T11:02:26;6.53;;;1.30;;
56860;SDS011;42744;51.094;3.490;2022-09-09T11:04:58;4.87;;;1.13;;
56860;SDS011;42744;51.094;3.490;2022-09-09T11:07:40;2.67;;;1.13;;
56860;SDS011;42744;51.094;3.490;2022-09-09T11:12:48;3.67;;;1.17;;
56860;SDS011;42744;51.094;3.490;2022-09-09T11:15:23;5.03;;;1.10;;
56860;SDS011;42744;51.094;3.490;2022-09-09T11:17:58;4.40;;;1.87;;
56860;SDS011;42744;51.094;3.490;2022-09-09T11:20:29;4.80;;;1.10;;
56860;SDS011;42744;51.094;3.490;2022-09-09T11:23:20;2.80;;;0.97;;
56860;SDS011;42744;51.094;3.490;2022-09-09T11:25:57;2.80;;;1.10;;
56860;SDS011;42744;51.094;3.490;2022-09-09T11:28:37;3.37;;;1.20;;
56860;SDS011;42744;51.094;3.490;2022-09-09T11:42:06;2.87;;;0.67;;
56860;SDS011;42744;51.094;3.490;2022-09-09T11:44:40;3.60;;;1.03;;
56860;SDS011;42744;51.094;3.490;2022-09-09T11:52:45;5.03;;;1.03;;
56860;SDS011;42744;51.094;3.490;2022-09-09T11:57:58;3.07;;;1.10;;
56860;SDS011;42744;51.094;3.490;2022-09-09T12:00:35;3.07;;;1.00;;
56860;SDS011;42744;51.094;3.490;2022-09-09T12:06:00;4.53;;;0.90;;
56860;SDS011;42744;51.094;3.490;2022-09-09T12:08:39;4.90;;;1.23;;
56860;SDS011;42744;51.094;3.490;2022-09-09T12:11:08;3.00;;;0.93;;
56860;SDS011;42744;51.094;3.490;2022-09-09T12:13:34;2.70;;;0.90;;
56860;SDS011;42744;51.094;3.490;2022-09-09T12:16:01;3.10;;;0.93;;
56860;SDS011;42744;51.094;3.490;2022-09-09T12:18:37;2.93;;;0.80;;
56860;SDS011;42744;51.094;3.490;2022-09-09T12:23:52;6.60;;;1.10;;
56860;SDS011;42744;51.094;3.490;2022-09-09T12:26:23;4.73;;;1.13;;
56860;SDS011;42744;51.094;3.490;2022-09-09T12:34:48;4.43;;;1.40;;
56860;SDS011;42744;51.094;3.490;2022-09-09T12:40:24;4.10;;;1.10;;
56860;SDS011;42744;51.094;3.490;2022-09-09T12:42:52;5.30;;;1.13;;
56860;SDS011;42744;51.094;3.490;2022-09-09T12:45:21;2.93;;;1.13;;
56860;SDS011;42744;51.094;3.490;2022-09-09T12:48:00;1.83;;;0.87;;
56860;SDS011;42744;51.094;3.490;2022-09-09T12:50:33;3.13;;;1.00;;
56860;SDS011;42744;51.094;3.490;2022-09-09T12:53:10;1.77;;;1.07;;
56860;SDS011;42744;51.094;3.490;2022-09-09T12:55:51;2.13;;;1.10;;
56860;SDS011;42744;51.094;3.490;2022-09-09T12:58:18;6.10;;;1.37;;
56860;SDS011;42744;51.094;3.490;2022-09-09T13:00:52;3.03;;;1.37;;
56860;SDS011;42744;51.094;3.490;2022-09-09T13:03:21;3.50;;;1.37;;
56860;SDS011;42744;51.094;3.490;2022-09-09T13:05:48;3.77;;;1.63;;
56860;SDS011;42744;51.094;3.490;2022-09-09T13:08:15;3.80;;;1.20;;
56860;SDS011;42744;51.094;3.490;2022-09-09T13:10:56;2.37;;;1.43;;
56860;SDS011;42744;51.094;3.490;2022-09-09T13:13:26;2.60;;;1.10;;
56860;SDS011;42744;51.094;3.490;2022-09-09T13:15:56;3.40;;;1.30;;
56860;SDS011;42744;51.094;3.490;2022-09-09T13:18:26;3.63;;;0.97;;
56860;SDS011;42744;51.094;3.490;2022-09-09T13:20:54;5.10;;;1.30;;
56860;SDS011;42744;51.094;3.490;2022-09-09T13:23:24;4.25;;;0.95;;
56860;SDS011;42744;51.094;3.490;2022-09-09T13:26:02;2.53;;;1.07;;
56860;SDS011;42744;51.094;3.490;2022-09-09T13:28:31;15.48;;;1.75;;
56860;SDS011;42744;51.094;3.490;2022-09-09T13:30:59;2.75;;;1.15;;
56860;SDS011;42744;51.094;3.490;2022-09-09T13:33:33;6.90;;;1.60;;
56860;SDS011;42744;51.094;3.490;2022-09-09T13:36:06;21.63;;;3.43;;
56860;SDS011;42744;51.094;3.490;2022-09-09T13:38:40;10.95;;;2.60;;
56860;SDS011;42744;51.094;3.490;2022-09-09T13:41:23;6.23;;;1.63;;
56860;SDS011;42744;51.094;3.490;2022-09-09T13:44:01;12.13;;;2.03;;
56860;SDS011;42744;51.094;3.490;2022-09-09T13:54:09;3.87;;;1.90;;
56860;SDS011;42744;51.094;3.490;2022-09-09T13:56:36;6.10;;;1.90;;
56860;SDS011;42744;51.094;3.490;2022-09-09T13:59:05;5.47;;;1.47;;
56860;SDS011;42744;51.094;3.490;2022-09-09T14:01:34;4.30;;;1.40;;
56860;SDS011;42744;51.094;3.490;2022-09-09T14:04:00;3.53;;;1.10;;
56860;SDS011;42744;51.094;3.490;2022-09-09T14:06:26;2.03;;;0.80;;
56860;SDS011;42744;51.094;3.490;2022-09-09T14:08:54;2.27;;;0.90;;
56860;SDS011;42744;51.094;3.490;2022-09-09T14:11:20;4.10;;;1.10;;
56860;SDS011;42744;51.094;3.490;2022-09-09T14:13:47;4.77;;;1.23;;
56860;SDS011;42744;51.094;3.490;2022-09-09T14:16:15;4.40;;;1.50;;
56860;SDS011;42744;51.094;3.490;2022-09-09T14:18:43;10.33;;;1.90;;
56860;SDS011;42744;51.094;3.490;2022-09-09T14:21:10;11.60;;;2.80;;
56860;SDS011;42744;51.094;3.490;2022-09-09T14:23:36;6.67;;;2.17;;
56860;SDS011;42744;51.094;3.490;2022-09-09T14:26:07;7.37;;;1.57;;
56860;SDS011;42744;51.094;3.490;2022-09-09T14:28:34;7.60;;;1.90;;
56860;SDS011;42744;51.094;3.490;2022-09-09T14:31:02;4.30;;;1.27;;
56860;SDS011;42744;51.094;3.490;2022-09-09T14:33:29;5.40;;;1.50;;
56860;SDS011;42744;51.094;3.490;2022-09-09T14:35:59;2.77;;;1.40;;
56860;SDS011;42744;51.094;3.490;2022-09-09T14:38:30;16.30;;;2.33;;
56860;SDS011;42744;51.094;3.490;2022-09-09T14:41:05;6.67;;;2.10;;
56860;SDS011;42744;51.094;3.490;2022-09-09T14:43:32;3.23;;;2.23;;
56860;SDS011;42744;51.094;3.490;2022-09-09T14:46:05;6.47;;;2.83;;
56860;SDS011;42744;51.094;3.490;2022-09-09T14:48:32;3.17;;;2.33;;
56860;SDS011;42744;51.094;3.490;2022-09-09T14:51:06;5.97;;;2.57;;
56860;SDS011;42744;51.094;3.490;2022-09-09T14:53:42;4.00;;;2.17;;
56860;SDS011;42744;51.094;3.490;2022-09-09T14:56:10;5.23;;;2.37;;
56860;SDS011;42744;51.094;3.490;2022-09-09T14:58:41;6.73;;;2.60;;
56860;SDS011;42744;51.094;3.490;2022-09-09T15:01:11;8.03;;;2.63;;
56860;SDS011;42744;51.094;3.490;2022-09-09T15:03:39;3.80;;;2.33;;
56860;SDS011;42744;51.094;3.490;2022-09-09T15:06:07;7.43;;;2.97;;
56860;SDS011;42744;51.094;3.490;2022-09-09T15:08:38;3.10;;;2.60;;
56860;SDS011;42744;51.094;3.490;2022-09-09T15:11:09;4.10;;;2.23;;
56860;SDS011;42744;51.094;3.490;2022-09-09T15:13:37;6.00;;;2.53;;
56860;SDS011;42744;51.094;3.490;2022-09-09T15:16:05;5.77;;;2.07;;
56860;SDS011;42744;51.094;3.490;2022-09-09T15:18:45;9.23;;;3.30;;
56860;SDS011;42744;51.094;3.490;2022-09-09T15:21:13;10.37;;;4.00;;
56860;SDS011;42744;51.094;3.490;2022-09-09T15:23:47;9.07;;;3.07;;
56860;SDS011;42744;51.094;3.490;2022-09-09T15:26:13;9.27;;;3.07;;
56860;SDS011;42744;51.094;3.490;2022-09-09T15:28:40;9.07;;;3.30;;
56860;SDS011;42744;51.094;3.490;2022-09-09T15:31:09;5.33;;;2.67;;
56860;SDS011;42744;51.094;3.490;2022-09-09T15:33:40;3.53;;;2.33;;
56860;SDS011;42744;51.094;3.490;2022-09-09T15:36:17;4.07;;;1.87;;
56860;SDS011;42744;51.094;3.490;2022-09-09T15:38:47;4.80;;;2.03;;
56860;SDS011;42744;51.094;3.490;2022-09-09T15:41:14;2.27;;;1.77;;
56860;SDS011;42744;51.094;3.490;2022-09-09T15:43:44;3.67;;;1.50;;
56860;SDS011;42744;51.094;3.490;2022-09-09T15:49:05;3.67;;;1.93;;
56860;SDS011;42744;51.094;3.490;2022-09-09T15:51:40;3.63;;;1.80;;
56860;SDS011;42744;51.094;3.490;2022-09-09T15:54:11;3.13;;;1.77;;
56860;SDS011;42744;51.094;3.490;2022-09-09T15:56:46;4.63;;;2.00;;
56860;SDS011;42744;51.094;3.490;2022-09-09T15:59:15;4.40;;;2.03;;
56860;SDS011;42744;51.094;3.490;2022-09-09T16:01:41;3.17;;;2.33;;
56860;SDS011;42744;51.094;3.490;2022-09-09T16:04:08;4.97;;;2.63;;
56860;SDS011;42744;51.094;3.490;2022-09-09T16:06:34;8.17;;;2.60;;
56860;SDS011;42744;51.094;3.490;2022-09-09T16:09:01;4.07;;;2.40;;
56860;SDS011;42744;51.094;3.490;2022-09-09T16:11:30;9.87;;;2.73;;
56860;SDS011;42744;51.094;3.490;2022-09-09T16:13:59;5.90;;;2.70;;
56860;SDS011;42744;51.094;3.490;2022-09-09T16:16:26;5.10;;;2.57;;
56860;SDS011;42744;51.094;3.490;2022-09-09T16:18:57;7.63;;;3.33;;
56860;SDS011;42744;51.094;3.490;2022-09-09T16:21:31;6.43;;;2.70;;
56860;SDS011;42744;51.094;3.490;2022-09-09T16:24:03;7.17;;;2.80;;
56860;SDS011;42744;51.094;3.490;2022-09-09T16:26:31;6.83;;;2.70;;
56860;SDS011;42744;51.094;3.490;2022-09-09T16:28:59;5.87;;;2.63;;
56860;SDS011;42744;51.094;3.490;2022-09-09T16:31:27;3.13;;;2.40;;
56860;SDS011;42744;51.094;3.490;2022-09-09T16:33:54;3.17;;;2.40;;
56860;SDS011;42744;51.094;3.490;2022-09-09T16:36:30;4.63;;;2.73;;
56860;SDS011;42744;51.094;3.490;2022-09-09T16:38:58;9.27;;;3.13;;
56860;SDS011;42744;51.094;3.490;2022-09-09T16:41:26;7.67;;;2.80;;
56860;SDS011;42744;51.094;3.490;2022-09-09T16:43:54;6.10;;;2.60;;
56860;SDS011;42744;51.094;3.490;2022-09-09T16:46:24;9.53;;;3.40;;
56860;SDS011;42744;51.094;3.490;2022-09-09T16:48:52;5.10;;;2.80;;
56860;SDS011;42744;51.094;3.490;2022-09-09T16:51:24;6.37;;;2.43;;
56860;SDS011;42744;51.094;3.490;2022-09-09T16:53:53;4.80;;;2.47;;
56860;SDS011;42744;51.094;3.490;2022-09-09T16:56:21;5.13;;;1.80;;
56860;SDS011;42744;51.094;3.490;2022-09-09T16:58:51;3.43;;;1.40;;
56860;SDS011;42744;51.094;3.490;2022-09-09T17:01:21;4.20;;;1.60;;
56860;SDS011;42744;51.094;3.490;2022-09-09T17:03:52;7.10;;;1.80;;
56860;SDS011;42744;51.094;3.490;2022-09-09T17:06:28;4.53;;;1.73;;
56860;SDS011;42744;51.094;3.490;2022-09-09T17:08:59;5.30;;;2.10;;
56860;SDS011;42744;51.094;3.490;2022-09-09T17:11:27;3.17;;;1.93;;
56860;SDS011;42744;51.094;3.490;2022-09-09T17:13:54;3.30;;;1.93;;
56860;SDS011;42744;51.094;3.490;2022-09-09T17:16:22;5.87;;;2.23;;
56860;SDS011;42744;51.094;3.490;2022-09-09T17:18:50;8.17;;;2.67;;
56860;SDS011;42744;51.094;3.490;2022-09-09T17:21:18;5.67;;;2.57;;
56860;SDS011;42744;51.094;3.490;2022-09-09T17:23:45;4.17;;;2.40;;
56860;SDS011;42744;51.094;3.490;2022-09-09T17:26:14;3.93;;;1.73;;
56860;SDS011;42744;51.094;3.490;2022-09-09T17:28:42;5.47;;;1.60;;
56860;SDS011;42744;51.094;3.490;2022-09-09T17:31:11;5.13;;;2.07;;
56860;SDS011;42744;51.094;3.490;2022-09-09T17:33:40;6.63;;;1.60;;
56860;SDS011;42744;51.094;3.490;2022-09-09T17:36:09;2.53;;;1.03;;
56860;SDS011;42744;51.094;3.490;2022-09-09T17:38:37;3.97;;;1.40;;
56860;SDS011;42744;51.094;3.490;2022-09-09T17:41:04;6.30;;;1.30;;
56860;SDS011;42744;51.094;3.490;2022-09-09T17:43:48;5.53;;;1.83;;
56860;SDS011;42744;51.094;3.490;2022-09-09T17:46:16;6.27;;;1.70;;
56860;SDS011;42744;51.094;3.490;2022-09-09T17:48:47;5.17;;;1.50;;
56860;SDS011;42744;51.094;3.490;2022-09-09T17:51:16;6.60;;;1.80;;
56860;SDS011;42744;51.094;3.490;2022-09-09T17:53:50;6.90;;;1.60;;
56860;SDS011;42744;51.094;3.490;2022-09-09T17:56:19;7.73;;;1.50;;
56860;SDS011;42744;51.094;3.490;2022-09-09T17:58:47;5.77;;;1.57;;